Terminal Aerodrome Forecast
Issued by NWS Lake Charles, LA

Home | Current Version | Previous Version | Text Only | Print | Product List | Glossary On
Versions: 1 2 3 4 5 6 7 8 9 10 11 12 13 14
079
FTUS44 KLCH 261914 AAA
TAFBPT
TAF AMD
KBPT 261914Z 2619/2718 VRB05KT P6SM VCTS SCT025CB BKN050
      TEMPO 2619/2620 3SM TSRA BKN025CB
     FM270100 01009KT P6SM VCSH FEW015 BKN040=

USA.gov is the U.S. government's official web portal to all federal, state and local government web resources and services.